createdAt,value
2023-04-02T00:01:33.271Z,100692.72
2023-04-02T00:03:59.912Z,100862.38
2023-04-02T00:06:33.521Z,100861.44
2023-04-02T00:09:03.265Z,100869.84
2023-04-02T00:11:34.445Z,100826.72
2023-04-02T00:14:02.949Z,100791.91
2023-04-02T00:16:29.785Z,100850.66
2023-04-02T00:19:01.884Z,100804.06
2023-04-02T00:21:32.334Z,100887.34
2023-04-02T00:24:13.694Z,100824.13
2023-04-02T00:26:47.828Z,100890.47
2023-04-02T00:29:16.457Z,100866.28
2023-04-02T00:31:45.882Z,100882.97
2023-04-02T00:34:28.881Z,100821.41
2023-04-02T00:36:56.358Z,100818.63
2023-04-02T00:39:29.914Z,100831.00
2023-04-02T00:42:07.511Z,100671.84
2023-04-02T00:44:38.416Z,100931.88
2023-04-02T00:47:24.504Z,100947.72
2023-04-02T00:50:15.907Z,100926.19
2023-04-02T00:52:46.180Z,100940.69
2023-04-02T00:55:17.863Z,100948.47
2023-04-02T00:57:45.259Z,100941.22
2023-04-02T01:00:31.179Z,100956.59
2023-04-02T01:03:30.455Z,100983.03
2023-04-02T01:06:12.916Z,100955.19
2023-04-02T01:08:52.921Z,100970.44
2023-04-02T01:11:48.169Z,100951.41
2023-04-02T01:14:34.666Z,100982.94
2023-04-02T01:17:12.321Z,100941.38
2023-04-02T01:20:08.088Z,101006.38
2023-04-02T01:22:50.959Z,100968.75
2023-04-02T01:25:23.569Z,101006.19
2023-04-02T01:27:59.150Z,100990.06
2023-04-02T01:30:26.309Z,101009.47
2023-04-02T01:32:54.210Z,100930.53
2023-04-02T01:35:23.595Z,100928.44
2023-04-02T01:38:13.862Z,101008.97
2023-04-02T01:40:58.438Z,101031.44
2023-04-02T01:43:33.696Z,101041.03
2023-04-02T01:46:06.009Z,101049.91
2023-04-02T01:48:33.198Z,101031.97
2023-04-02T01:51:05.353Z,100926.19
2023-04-02T01:53:32.045Z,101016.44
2023-04-02T01:56:01.308Z,100951.59
2023-04-02T01:58:34.334Z,100967.78
2023-04-02T02:01:13.978Z,101038.47
2023-04-02T02:03:43.276Z,101003.31
2023-04-02T02:06:16.614Z,101086.44
2023-04-02T02:08:48.925Z,101088.06
2023-04-02T02:11:19.004Z,101102.00
2023-04-02T02:13:58.082Z,101058.28
2023-04-02T02:16:27.376Z,101070.66
2023-04-02T02:18:57.831Z,101100.59
2023-04-02T02:21:40.086Z,101087.22
2023-04-02T02:24:28.885Z,101115.63
2023-04-02T02:27:07.100Z,101133.47
2023-04-02T02:29:39.076Z,101119.00
2023-04-02T02:32:09.516Z,101090.06
2023-04-02T02:34:44.294Z,101147.59
2023-04-02T02:37:30.881Z,101123.94
2023-04-02T02:40:01.262Z,101126.81
2023-04-02T02:42:42.774Z,101143.78
2023-04-02T02:45:20.893Z,101148.34
2023-04-02T02:47:50.782Z,101145.47
2023-04-02T02:50:31.737Z,101141.22
2023-04-02T02:53:05.646Z,101187.34
2023-04-02T02:55:37.464Z,101148.75
2023-04-02T02:58:23.730Z,101135.22
2023-04-02T03:01:09.792Z,101150.31
2023-04-02T03:03:40.416Z,101203.91
2023-04-02T03:06:13.932Z,101219.47
2023-04-02T03:08:53.943Z,101092.88
2023-04-02T03:11:34.822Z,101201.94
2023-04-02T03:14:17.042Z,101098.66
2023-04-02T03:16:49.072Z,101205.03
2023-04-02T03:19:27.877Z,101218.50
2023-04-02T03:22:05.148Z,101123.91
2023-04-02T03:24:42.771Z,101208.03
2023-04-02T03:27:16.584Z,101226.94
2023-04-02T03:29:53.942Z,101212.28
2023-04-02T03:32:26.003Z,101209.41
2023-04-02T03:35:09.643Z,101246.25
2023-04-02T03:37:44.394Z,101213.50
2023-04-02T03:40:22.568Z,101213.19
2023-04-02T03:42:54.561Z,101229.59
2023-04-02T03:45:27.186Z,101151.47
2023-04-02T03:47:56.969Z,101275.13
2023-04-02T03:50:52.012Z,101279.38
2023-04-02T03:53:24.437Z,101270.06
2023-04-02T03:55:52.469Z,101275.28
2023-04-02T03:58:28.678Z,101302.91
2023-04-02T04:01:03.119Z,101271.03
2023-04-02T04:03:37.886Z,101282.34
2023-04-02T04:06:13.709Z,101320.91
2023-04-02T04:08:46.918Z,101339.41
2023-04-02T04:11:19.801Z,101248.38
2023-04-02T04:13:53.664Z,101322.94
2023-04-02T04:16:32.635Z,101337.00
2023-04-02T04:19:05.011Z,101293.06
2023-04-02T04:21:39.136Z,101308.16
2023-04-02T04:24:25.361Z,101361.34
2023-04-02T04:27:34.595Z,101362.03
2023-04-02T04:30:27.319Z,101378.63
2023-04-02T04:33:01.925Z,101300.31
2023-04-02T04:35:31.058Z,101343.50
2023-04-02T04:38:07.679Z,101277.38
2023-04-02T04:40:42.234Z,101371.97
2023-04-02T04:43:20.771Z,101374.69
2023-04-02T04:45:50.070Z,101399.84
2023-04-02T04:48:22.904Z,101401.50
2023-04-02T04:51:05.943Z,101407.66
2023-04-02T04:53:33.755Z,101370.09
2023-04-02T04:56:18.058Z,101409.91
2023-04-02T04:59:14.713Z,101441.78
2023-04-02T05:01:50.651Z,101437.28
2023-04-02T05:04:28.499Z,101277.72
2023-04-02T05:07:03.431Z,101453.69
2023-04-02T05:09:37.558Z,101354.69
2023-04-02T05:12:26.659Z,101464.50
2023-04-02T05:15:00.644Z,101473.38
2023-04-02T05:17:43.848Z,101485.72
2023-04-02T05:20:36.819Z,101487.38
2023-04-02T05:23:25.953Z,101399.16
2023-04-02T05:26:06.361Z,101463.69
2023-04-02T05:28:42.982Z,101494.16
2023-04-02T05:31:42.286Z,101498.59
2023-04-02T05:34:11.466Z,101508.94
2023-04-02T05:36:39.423Z,101481.81
2023-04-02T05:39:11.000Z,101466.00
2023-04-02T05:41:47.548Z,101424.13
2023-04-02T05:44:31.773Z,101329.00
2023-04-02T05:47:07.938Z,101543.84
2023-04-02T05:49:50.425Z,101530.47
2023-04-02T05:52:23.854Z,101514.28
2023-04-02T05:54:59.244Z,101531.56
2023-04-02T05:57:43.863Z,101544.88
2023-04-02T06:00:26.277Z,101564.47
2023-04-02T06:03:12.776Z,101543.31
2023-04-02T06:05:45.606Z,101572.03
2023-04-02T06:08:16.220Z,101585.88
2023-04-02T06:10:57.084Z,101591.13
2023-04-02T06:13:27.454Z,101559.53
2023-04-02T06:15:55.232Z,101489.50
2023-04-02T06:18:29.850Z,101588.19
2023-04-02T06:20:57.339Z,101570.88
2023-04-02T06:23:30.913Z,101613.84
2023-04-02T06:26:31.680Z,101634.38
2023-04-02T06:29:19.065Z,101610.09
2023-04-02T06:31:53.790Z,101645.66
2023-04-02T06:34:25.648Z,101595.41
2023-04-02T06:37:04.412Z,101566.50
2023-04-02T06:39:33.936Z,101625.56
2023-04-02T06:42:13.442Z,101669.63
2023-04-02T06:45:02.504Z,101620.00
2023-04-02T06:47:51.578Z,101664.81
2023-04-02T06:51:02.032Z,101688.28
2023-04-02T06:53:44.157Z,101689.41
2023-04-02T06:56:42.367Z,101686.03
2023-04-02T06:59:12.661Z,101670.66
2023-04-02T07:01:48.875Z,101663.31
2023-04-02T07:04:16.319Z,101670.09
2023-04-02T07:06:45.609Z,101630.22
2023-04-02T07:09:15.244Z,101703.94
2023-04-02T07:11:46.375Z,101701.31
2023-04-02T07:14:13.888Z,101678.81
2023-04-02T07:16:42.708Z,101747.84
2023-04-02T07:19:19.087Z,101765.06
2023-04-02T07:21:46.866Z,101637.91
2023-04-02T07:24:14.069Z,101754.09
2023-04-02T07:26:40.911Z,101768.09
2023-04-02T07:29:09.104Z,101723.81
2023-04-02T07:31:39.092Z,101763.50
2023-04-02T07:34:07.263Z,101751.84
2023-04-02T07:36:33.926Z,101664.09
2023-04-02T07:39:00.856Z,101752.00
2023-04-02T07:41:27.639Z,101786.50
2023-04-02T07:43:54.565Z,101755.13
2023-04-02T07:46:21.148Z,101765.13
2023-04-02T07:48:47.958Z,101790.63
2023-04-02T07:51:26.285Z,101801.41
2023-04-02T07:53:55.931Z,101774.41
2023-04-02T07:56:24.751Z,101787.09
2023-04-02T07:58:51.716Z,101798.88
2023-04-02T08:01:25.505Z,101801.31
2023-04-02T08:03:54.608Z,101775.06
2023-04-02T08:06:22.086Z,101816.81
2023-04-02T08:08:48.981Z,101832.13
2023-04-02T08:11:15.969Z,101725.56
2023-04-02T08:13:42.981Z,101831.53
2023-04-02T08:16:09.763Z,101808.91
2023-04-02T08:18:36.707Z,101830.44
2023-04-02T08:21:07.835Z,101781.41
2023-04-02T08:23:35.775Z,101756.66
2023-04-02T08:26:02.803Z,101825.28
2023-04-02T08:28:29.406Z,101862.25
2023-04-02T08:30:56.168Z,101869.44
2023-04-02T08:33:22.758Z,101861.25
2023-04-02T08:35:50.709Z,101802.50
2023-04-02T08:38:19.568Z,101792.03
2023-04-02T08:40:51.696Z,101873.56
2023-04-02T08:43:24.446Z,101913.91
2023-04-02T08:46:03.325Z,101852.78
2023-04-02T08:48:32.641Z,101884.47
2023-04-02T08:51:01.838Z,101927.25
2023-04-02T08:53:35.993Z,101906.13
2023-04-02T08:56:17.886Z,101938.28
2023-04-02T08:58:48.533Z,101918.50
2023-04-02T09:01:47.650Z,101956.00
2023-04-02T09:04:18.749Z,101946.34
2023-04-02T09:06:46.957Z,101860.03
2023-04-02T09:09:15.260Z,101964.63
2023-04-02T09:11:58.988Z,101937.81
2023-04-02T09:14:53.504Z,101977.72
2023-04-02T09:17:26.316Z,101872.72
2023-04-02T09:20:02.176Z,101965.63
2023-04-02T09:22:33.421Z,101898.16
2023-04-02T09:25:03.045Z,101981.72
2023-04-02T09:27:38.926Z,101986.31
2023-04-02T09:30:21.288Z,101995.66
2023-04-02T09:32:53.587Z,101987.72
2023-04-02T09:35:26.593Z,102003.94
2023-04-02T09:38:20.443Z,102005.34
2023-04-02T09:40:53.717Z,101968.06
2023-04-02T09:43:25.714Z,102017.63
2023-04-02T09:46:15.485Z,102024.47
2023-04-02T09:48:53.215Z,102019.19
2023-04-02T09:51:23.067Z,101988.59
2023-04-02T09:54:03.196Z,102035.19
2023-04-02T09:56:35.549Z,102036.16
2023-04-02T09:59:15.069Z,102038.72
2023-04-02T10:01:44.971Z,102007.69
2023-04-02T10:04:45.432Z,102028.59
2023-04-02T10:07:43.811Z,102054.78
2023-04-02T10:10:23.946Z,102058.47
2023-04-02T10:13:04.082Z,102061.56
2023-04-02T10:15:38.192Z,102040.84
2023-04-02T10:18:20.941Z,102058.34
2023-04-02T10:20:51.343Z,102069.50
2023-04-02T10:23:19.583Z,102077.22
2023-04-02T10:26:21.516Z,102083.88
2023-04-02T10:28:55.106Z,102084.00
2023-04-02T10:31:31.679Z,102090.00
2023-04-02T10:34:03.048Z,102117.28
2023-04-02T10:36:51.420Z,102082.34
2023-04-02T10:39:27.371Z,102119.13
2023-04-02T10:42:05.981Z,102095.91
2023-04-02T10:44:39.335Z,102118.94
2023-04-02T10:47:18.174Z,102126.94
2023-04-02T10:50:03.367Z,102109.66
2023-04-02T10:52:37.032Z,102121.72
2023-04-02T10:55:17.563Z,102023.50
2023-04-02T10:57:45.607Z,102108.03
2023-04-02T11:00:13.014Z,102130.56
2023-04-02T11:02:56.792Z,102091.16
2023-04-02T11:05:47.395Z,102106.03
2023-04-02T11:08:18.107Z,102130.50
2023-04-02T11:10:50.447Z,102113.13
2023-04-02T11:13:28.055Z,102116.69
2023-04-02T11:15:55.027Z,102137.09
2023-04-02T11:18:25.600Z,102137.69
2023-04-02T11:21:01.425Z,102113.44
2023-04-02T11:23:31.188Z,102064.31
2023-04-02T11:26:34.323Z,102143.97
2023-04-02T11:29:21.537Z,102148.28
2023-04-02T11:31:49.821Z,102148.69
2023-04-02T11:34:42.038Z,102154.34
2023-04-02T11:37:11.526Z,102142.19
2023-04-02T11:39:56.735Z,102159.44
2023-04-02T11:42:27.834Z,102159.66
2023-04-02T11:44:56.111Z,102145.28
2023-04-02T11:47:27.710Z,102148.91
2023-04-02T11:49:54.381Z,102167.81
2023-04-02T11:52:27.211Z,102168.03
2023-04-02T11:55:04.189Z,101990.16
2023-04-02T11:57:51.358Z,102153.06
2023-04-02T12:00:42.098Z,102183.00
2023-04-02T12:03:14.762Z,102181.22
2023-04-02T12:06:06.530Z,102163.78
2023-04-02T12:08:56.948Z,102163.50
2023-04-02T12:11:39.835Z,102168.25
2023-04-02T12:14:31.129Z,102196.09
2023-04-02T12:16:58.157Z,102202.91
2023-04-02T12:19:26.454Z,102149.47
2023-04-02T12:21:53.619Z,102129.75
2023-04-02T12:24:23.645Z,102176.56
2023-04-02T12:27:15.083Z,102183.69
2023-04-02T12:29:51.593Z,102122.25
2023-04-02T12:32:30.288Z,102128.16
2023-04-02T12:35:04.624Z,102152.59
2023-04-02T12:37:31.433Z,102186.72
2023-04-02T12:40:14.601Z,102209.97
2023-04-02T12:42:41.300Z,102224.72
2023-04-02T12:45:23.297Z,102235.94
2023-04-02T12:47:50.885Z,102191.34
2023-04-02T12:50:18.111Z,102190.88
2023-04-02T12:52:47.697Z,102197.25
2023-04-02T12:55:21.222Z,102177.59
2023-04-02T12:57:51.081Z,102199.38
2023-04-02T13:00:24.766Z,102219.84
2023-04-02T13:03:18.012Z,102190.31
2023-04-02T13:05:50.100Z,102174.19
2023-04-02T13:08:20.466Z,102210.06
2023-04-02T13:10:53.871Z,102210.81
2023-04-02T13:13:27.801Z,102112.06
2023-04-02T13:16:22.267Z,102224.44
2023-04-02T13:18:49.824Z,102145.19
2023-04-02T13:21:16.392Z,102216.22
2023-04-02T13:23:43.904Z,102135.13
2023-04-02T13:26:17.536Z,102200.22
2023-04-02T13:29:16.901Z,102221.16
2023-04-02T13:31:44.530Z,102202.56
2023-04-02T13:34:12.167Z,102198.16
2023-04-02T13:36:38.787Z,102115.25
2023-04-02T13:39:06.094Z,102213.28
2023-04-02T13:41:39.709Z,102207.78
2023-04-02T13:44:06.541Z,102193.88
2023-04-02T13:46:34.695Z,102127.50
2023-04-02T13:49:01.638Z,102210.13
2023-04-02T13:51:39.998Z,102193.97
2023-04-02T13:54:14.062Z,102186.75
2023-04-02T13:56:41.238Z,102202.03
2023-04-02T13:59:07.857Z,102225.41
2023-04-02T14:01:34.821Z,102193.97
2023-04-02T14:04:02.638Z,102215.44
2023-04-02T14:06:49.499Z,102224.34
2023-04-02T14:09:29.634Z,102227.06
2023-04-02T14:12:09.034Z,102216.44
2023-04-02T14:14:54.545Z,102247.75
2023-04-02T14:17:43.558Z,102232.53
2023-04-02T14:20:16.927Z,102244.19
2023-04-02T14:23:17.030Z,102251.38
2023-04-02T14:26:09.356Z,102210.06
2023-04-02T14:28:57.635Z,102260.31
2023-04-02T14:31:41.085Z,102253.13
2023-04-02T14:34:20.051Z,102156.25
2023-04-02T14:36:56.459Z,102238.69
2023-04-02T14:39:41.404Z,102261.22
2023-04-02T14:42:18.712Z,102259.47
2023-04-02T14:44:57.181Z,102244.19
2023-04-02T14:47:41.730Z,102268.44
2023-04-02T14:50:16.761Z,102277.41
2023-04-02T14:52:47.458Z,102184.94
2023-04-02T14:55:34.493Z,102226.94
2023-04-02T14:58:06.130Z,102258.50
2023-04-02T15:00:44.881Z,102243.25
2023-04-02T15:03:25.850Z,102266.66
2023-04-02T15:06:06.809Z,102280.13
2023-04-02T15:08:48.343Z,102170.56
2023-04-02T15:11:57.598Z,102278.41
2023-04-02T15:14:40.990Z,102249.56
2023-04-02T15:17:11.031Z,102247.69
2023-04-02T15:19:37.641Z,102267.63
2023-04-02T15:22:24.907Z,102283.72
2023-04-02T15:25:19.226Z,102265.81
2023-04-02T15:28:00.498Z,102266.72
2023-04-02T15:30:36.081Z,102285.59
2023-04-02T15:33:33.419Z,102291.88
2023-04-02T15:36:29.498Z,102294.53
2023-04-02T15:39:08.107Z,102289.19
2023-04-02T15:41:47.012Z,102198.47
2023-04-02T15:44:16.188Z,102273.00
2023-04-02T15:47:09.684Z,102284.69
2023-04-02T15:50:06.341Z,102300.84
2023-04-02T15:52:51.843Z,102302.66
2023-04-02T15:55:39.625Z,102317.00
2023-04-02T15:58:24.830Z,102307.97
2023-04-02T16:01:06.014Z,102292.66
2023-04-02T16:04:23.601Z,102316.03
2023-04-02T16:06:53.358Z,102316.13
2023-04-02T16:09:50.888Z,102308.88
2023-04-02T16:12:20.010Z,102296.28
2023-04-02T16:14:48.320Z,102269.28
2023-04-02T16:17:39.234Z,102325.81
2023-04-02T16:20:23.912Z,102284.50
2023-04-02T16:23:00.878Z,102346.50
2023-04-02T16:25:35.169Z,102319.28
2023-04-02T16:28:28.256Z,102351.91
2023-04-02T16:31:02.360Z,102275.91
2023-04-02T16:33:34.606Z,102312.06
2023-04-02T16:36:22.611Z,102317.03
2023-04-02T16:38:52.255Z,102368.78
2023-04-02T16:41:28.538Z,102374.47
2023-04-02T16:44:27.697Z,102240.84
2023-04-02T16:47:36.103Z,102386.88
2023-04-02T16:50:30.927Z,102392.09
2023-04-02T16:53:10.033Z,102384.63
2023-04-02T16:56:08.822Z,102376.94
2023-04-02T16:59:06.211Z,102400.47
2023-04-02T17:01:46.557Z,102375.34
2023-04-02T17:04:34.857Z,102413.31
2023-04-02T17:07:33.312Z,102411.38
2023-04-02T17:10:22.948Z,102409.47
2023-04-02T17:12:59.005Z,102425.81
2023-04-02T17:15:28.827Z,102324.41
2023-04-02T17:18:01.671Z,102415.72
2023-04-02T17:20:28.585Z,102407.97
2023-04-02T17:22:56.390Z,102431.88
2023-04-02T17:25:31.512Z,102415.06
2023-04-02T17:27:58.120Z,102413.00
2023-04-02T17:30:46.953Z,102438.69
2023-04-02T17:33:16.143Z,102428.72
2023-04-02T17:36:10.058Z,102453.28
2023-04-02T17:38:53.835Z,102425.22
2023-04-02T17:41:35.131Z,102391.13
2023-04-02T17:44:07.730Z,102398.34
2023-04-02T17:46:52.951Z,102483.75
2023-04-02T17:49:39.835Z,102474.44
2023-04-02T17:52:12.355Z,102496.34
2023-04-02T17:54:48.379Z,102492.50
2023-04-02T17:57:42.109Z,102489.06
2023-04-02T18:00:16.154Z,102498.78
2023-04-02T18:03:29.933Z,102507.50
2023-04-02T18:06:15.989Z,102490.47
2023-04-02T18:09:22.813Z,102513.69
2023-04-02T18:12:00.429Z,102507.19
2023-04-02T18:14:46.433Z,102524.50
2023-04-02T18:17:37.941Z,102515.31
2023-04-02T18:20:22.620Z,102506.69
2023-04-02T18:23:15.985Z,102532.19
2023-04-02T18:25:59.346Z,102486.31
2023-04-02T18:29:08.058Z,102512.50
2023-04-02T18:31:47.024Z,102501.22
2023-04-02T18:34:34.867Z,102536.41
2023-04-02T18:37:31.230Z,102550.28
2023-04-02T18:40:26.069Z,102557.75
2023-04-02T18:43:11.396Z,102474.00
2023-04-02T18:46:13.032Z,102535.06
2023-04-02T18:48:49.376Z,102551.75
2023-04-02T18:51:21.849Z,102444.88
2023-04-02T18:54:13.351Z,102537.91
2023-04-02T18:56:40.813Z,102548.63
2023-04-02T18:59:20.799Z,102473.09
2023-04-02T19:01:51.293Z,102565.72
2023-04-02T19:04:26.096Z,102477.91
2023-04-02T19:07:07.032Z,102587.78
2023-04-02T19:09:41.014Z,102552.13
2023-04-02T19:12:19.445Z,102451.53
2023-04-02T19:14:50.244Z,102471.94
2023-04-02T19:17:37.365Z,102542.34
2023-04-02T19:20:34.204Z,102597.38
2023-04-02T19:23:12.217Z,102614.34
2023-04-02T19:26:01.239Z,102592.41
2023-04-02T19:28:39.848Z,102586.66
2023-04-02T19:31:35.597Z,102607.66
2023-04-02T19:34:46.120Z,102633.47
2023-04-02T19:37:35.622Z,102636.50
2023-04-02T19:40:33.079Z,102639.47
2023-04-02T19:42:59.740Z,102614.63
2023-04-02T19:45:35.515Z,102640.84
2023-04-02T19:48:11.304Z,102643.34
2023-04-02T19:50:38.330Z,102620.34
2023-04-02T19:53:04.994Z,102614.63
2023-04-02T19:55:31.595Z,102614.88
2023-04-02T19:58:12.583Z,102627.66
2023-04-02T20:00:44.234Z,102566.75
2023-04-02T20:03:11.072Z,102597.09
2023-04-02T20:05:38.090Z,102655.13
2023-04-02T20:08:04.979Z,102620.81
2023-04-02T20:10:31.637Z,102617.16
2023-04-02T20:12:58.210Z,102648.63
2023-04-02T20:15:25.063Z,102647.03
2023-04-02T20:17:51.729Z,102628.06
2023-04-02T20:20:18.607Z,102605.38
2023-04-02T20:22:45.424Z,102525.44
2023-04-02T20:25:12.049Z,102616.06
2023-04-02T20:27:38.635Z,102521.56
2023-04-02T20:30:05.987Z,102539.56
2023-04-02T20:32:33.246Z,102526.31
2023-04-02T20:35:01.144Z,102667.97
2023-04-02T20:37:27.918Z,102637.13
2023-04-02T20:39:54.909Z,102676.59
2023-04-02T20:42:21.542Z,102635.94
2023-04-02T20:44:48.151Z,102556.09
2023-04-02T20:47:14.752Z,102643.19
2023-04-02T20:49:41.481Z,102660.97
2023-04-02T20:52:08.489Z,102686.53
2023-04-02T20:54:35.665Z,102639.84
2023-04-02T20:57:03.056Z,102586.59
2023-04-02T20:59:29.682Z,102694.97
2023-04-02T21:01:56.428Z,102679.88
2023-04-02T21:04:23.316Z,102577.41
2023-04-02T21:06:50.034Z,102695.81
2023-04-02T21:09:19.477Z,102594.13
2023-04-02T21:11:46.377Z,102705.81
2023-04-02T21:14:13.044Z,102580.25
2023-04-02T21:16:41.172Z,102719.44
2023-04-02T21:19:09.375Z,102692.03
2023-04-02T21:21:37.937Z,102693.16
2023-04-02T21:24:07.487Z,102713.22
2023-04-02T21:26:39.335Z,102716.41
2023-04-02T21:29:06.832Z,102731.44
2023-04-02T21:31:37.537Z,102701.31
2023-04-02T21:34:05.996Z,102640.28
2023-04-02T21:36:39.429Z,102707.38
2023-04-02T21:39:17.629Z,102709.63
2023-04-02T21:41:46.818Z,102727.78
2023-04-02T21:44:15.343Z,102701.28
2023-04-02T21:46:42.728Z,102693.59
2023-04-02T21:49:11.544Z,102742.28
2023-04-02T21:51:40.322Z,102734.06
2023-04-02T21:54:07.942Z,102706.41
2023-04-02T21:56:42.521Z,102743.63
2023-04-02T21:59:11.081Z,102636.44
2023-04-02T22:01:40.829Z,102652.72
2023-04-02T22:04:09.328Z,102697.25
2023-04-02T22:06:39.181Z,102732.22
2023-04-02T22:09:09.445Z,102689.16
2023-04-02T22:11:40.723Z,102752.75
2023-04-02T22:14:07.331Z,102742.94
2023-04-02T22:16:35.420Z,102645.69
2023-04-02T22:19:06.043Z,102747.31
2023-04-02T22:21:33.253Z,102691.91
2023-04-02T22:24:02.097Z,102658.38
2023-04-02T22:26:29.424Z,102769.63
2023-04-02T22:28:56.247Z,102631.22
2023-04-02T22:31:28.752Z,102668.97
2023-04-02T22:33:56.843Z,102747.94
2023-04-02T22:36:25.358Z,102760.09
2023-04-02T22:38:52.394Z,102736.22
2023-04-02T22:41:26.017Z,102759.69
2023-04-02T22:43:53.221Z,102616.59
2023-04-02T22:46:20.041Z,102721.75
2023-04-02T22:48:47.868Z,102698.34
2023-04-02T22:51:16.990Z,102754.34
2023-04-02T22:53:43.769Z,102707.94
2023-04-02T22:56:13.820Z,102750.16
2023-04-02T22:58:41.110Z,102755.44
2023-04-02T23:01:15.330Z,102749.03
2023-04-02T23:03:42.517Z,102740.63
2023-04-02T23:06:15.610Z,102673.53
2023-04-02T23:08:42.571Z,102632.97
2023-04-02T23:11:15.970Z,102670.38
2023-04-02T23:13:43.051Z,102672.00
2023-04-02T23:16:12.866Z,102770.09
2023-04-02T23:18:40.654Z,102678.88
2023-04-02T23:21:08.081Z,102739.25
2023-04-02T23:23:35.435Z,102770.00
2023-04-02T23:26:23.757Z,102760.41
2023-04-02T23:28:51.068Z,102764.75
2023-04-02T23:31:20.856Z,102724.78
2023-04-02T23:33:47.846Z,102713.84
2023-04-02T23:36:22.394Z,102719.56
2023-04-02T23:38:52.101Z,102707.56
2023-04-02T23:41:18.751Z,102783.25
2023-04-02T23:43:45.446Z,102743.06
2023-04-02T23:46:12.242Z,102777.19
2023-04-02T23:48:38.979Z,102734.81
2023-04-02T23:51:06.212Z,102780.50
2023-04-02T23:53:34.616Z,102730.69
2023-04-02T23:56:01.528Z,102768.38
2023-04-02T23:58:28.425Z,102752.06
